createdAt,value
2023-06-17T00:01:31.162Z,74.51
2023-06-17T00:04:33.518Z,74.59
2023-06-17T00:07:35.887Z,76.29
2023-06-17T00:10:38.414Z,75.81
2023-06-17T00:13:40.713Z,76.18
2023-06-17T00:16:45.184Z,76.23
2023-06-17T00:19:47.511Z,76.63
2023-06-17T00:22:49.960Z,77.20
2023-06-17T00:25:52.210Z,77.07
2023-06-17T00:28:54.627Z,77.72
2023-06-17T00:31:57.736Z,77.81
2023-06-17T00:35:00.208Z,78.08
2023-06-17T00:38:02.837Z,77.94
2023-06-17T00:41:05.204Z,77.69
2023-06-17T00:44:07.646Z,78.48
2023-06-17T00:47:12.611Z,78.69
2023-06-17T00:50:16.630Z,79.01
2023-06-17T00:53:19.143Z,79.34
2023-06-17T00:56:21.472Z,79.11
2023-06-17T00:59:23.946Z,79.18
2023-06-17T01:02:27.510Z,79.11
2023-06-17T01:05:30.145Z,79.58
2023-06-17T01:08:59.349Z,79.72
2023-06-17T01:12:03.974Z,79.55
2023-06-17T01:15:06.941Z,79.38
2023-06-17T01:18:10.083Z,79.02
2023-06-17T01:21:14.003Z,78.64
2023-06-17T01:24:28.767Z,77.73
2023-06-17T01:27:34.855Z,77.35
2023-06-17T01:30:37.113Z,77.58
2023-06-17T01:33:43.314Z,78.21
2023-06-17T01:36:47.318Z,78.41
2023-06-17T01:39:52.636Z,78.81
2023-06-17T01:42:55.556Z,79.54
2023-06-17T01:45:59.634Z,79.82
2023-06-17T01:49:02.175Z,80.43
2023-06-17T01:52:05.407Z,80.43
2023-06-17T01:55:08.112Z,80.43
2023-06-17T01:58:11.680Z,80.75
2023-06-17T02:01:13.920Z,80.92
2023-06-17T02:04:16.203Z,81.61
2023-06-17T02:07:19.063Z,82.06
2023-06-17T02:10:21.526Z,82.47
2023-06-17T02:13:24.096Z,83.07
2023-06-17T02:16:26.593Z,82.96
2023-06-17T02:19:33.448Z,83.43
2023-06-17T02:22:35.910Z,83.29
2023-06-17T02:25:41.325Z,83.23
2023-06-17T02:28:44.075Z,82.90
2023-06-17T02:31:46.518Z,82.53
2023-06-17T02:34:52.171Z,82.82
2023-06-17T02:37:55.692Z,83.20
2023-06-17T02:40:59.987Z,83.23
2023-06-17T02:44:02.201Z,82.98
2023-06-17T02:47:04.726Z,83.03
2023-06-17T02:50:08.744Z,82.78
2023-06-17T02:53:11.908Z,82.88
2023-06-17T02:56:14.788Z,82.70
2023-06-17T02:59:19.531Z,82.15
2023-06-17T03:02:24.795Z,80.52
2023-06-17T03:05:28.027Z,81.14
2023-06-17T03:08:34.670Z,81.55
2023-06-17T03:11:37.531Z,81.90
2023-06-17T03:14:41.630Z,82.04
2023-06-17T03:17:49.325Z,82.33
2023-06-17T03:20:54.548Z,82.31
2023-06-17T03:23:59.768Z,82.30
2023-06-17T03:27:02.703Z,82.75
2023-06-17T03:30:07.836Z,82.89
2023-06-17T03:33:10.833Z,82.75
2023-06-17T03:36:13.650Z,83.02
2023-06-17T03:39:15.957Z,83.03
2023-06-17T03:42:18.176Z,82.59
2023-06-17T03:45:20.590Z,81.82
2023-06-17T03:48:24.734Z,80.35
2023-06-17T03:51:26.899Z,78.80
2023-06-17T03:54:30.075Z,79.44
2023-06-17T03:57:32.257Z,79.40
2023-06-17T04:00:34.502Z,79.69
2023-06-17T04:03:36.821Z,78.97
2023-06-17T04:06:39.118Z,79.14
2023-06-17T04:09:48.084Z,79.51
2023-06-17T04:13:00.246Z,77.16
2023-06-17T04:16:03.700Z,77.07
2023-06-17T04:19:05.927Z,76.99
2023-06-17T04:22:08.193Z,76.87
2023-06-17T04:25:12.794Z,76.74
2023-06-17T04:28:19.502Z,77.80
2023-06-17T04:31:21.711Z,76.85
2023-06-17T04:34:24.700Z,74.68
2023-06-17T04:37:30.214Z,74.92
2023-06-17T04:40:33.536Z,74.61
2023-06-17T04:43:39.870Z,74.07
2023-06-17T04:46:46.758Z,74.94
2023-06-17T04:49:52.978Z,74.46
2023-06-17T04:52:55.901Z,73.57
2023-06-17T04:56:01.834Z,73.10
2023-06-17T04:59:05.614Z,73.55
2023-06-17T05:02:08.430Z,73.87
2023-06-17T05:05:10.782Z,73.58
2023-06-17T05:08:13.315Z,73.37
2023-06-17T05:11:16.486Z,70.87
2023-06-17T05:14:20.360Z,71.36
2023-06-17T05:17:24.134Z,71.08
2023-06-17T05:20:26.526Z,71.94
2023-06-17T05:23:29.003Z,72.72
2023-06-17T05:26:31.884Z,73.26
2023-06-17T05:29:34.104Z,73.67
2023-06-17T05:32:36.726Z,74.00
2023-06-17T05:35:39.729Z,74.69
2023-06-17T05:38:41.960Z,74.30
2023-06-17T05:41:44.189Z,71.40
2023-06-17T05:44:46.416Z,72.37
2023-06-17T05:47:48.859Z,72.37
2023-06-17T05:50:51.898Z,72.06
2023-06-17T05:53:54.852Z,71.12
2023-06-17T05:56:57.048Z,71.06
2023-06-17T05:59:59.245Z,71.11
2023-06-17T06:03:01.453Z,69.95
2023-06-17T06:06:03.721Z,71.22
2023-06-17T06:09:05.925Z,70.11
2023-06-17T06:12:08.544Z,68.95
2023-06-17T06:15:11.785Z,67.24
2023-06-17T06:18:15.259Z,68.21
2023-06-17T06:21:17.416Z,64.67
2023-06-17T06:24:19.756Z,64.18
2023-06-17T06:27:22.567Z,64.39
2023-06-17T06:30:25.405Z,65.34
2023-06-17T06:33:31.615Z,64.28
2023-06-17T06:36:34.017Z,62.69
2023-06-17T06:39:36.751Z,63.26
2023-06-17T06:42:39.233Z,62.78
2023-06-17T06:45:56.235Z,62.90
2023-06-17T06:49:00.701Z,58.57
2023-06-17T06:52:03.975Z,59.24
2023-06-17T06:55:06.922Z,60.84
2023-06-17T06:58:10.709Z,60.06
2023-06-17T07:01:13.003Z,60.64
2023-06-17T07:04:16.194Z,60.88
2023-06-17T07:07:18.823Z,61.18
2023-06-17T07:10:22.532Z,60.64
2023-06-17T07:13:25.355Z,61.12
2023-06-17T07:16:28.652Z,60.57
2023-06-17T07:19:31.706Z,60.71
2023-06-17T07:22:34.051Z,60.29
2023-06-17T07:25:38.298Z,59.23
2023-06-17T07:28:40.582Z,58.67
2023-06-17T07:31:42.744Z,59.56
2023-06-17T07:34:44.948Z,57.73
2023-06-17T07:37:47.236Z,60.35
2023-06-17T07:40:49.910Z,58.00
2023-06-17T07:43:52.089Z,61.40
2023-06-17T07:46:54.354Z,61.09
2023-06-17T07:49:56.556Z,61.58
2023-06-17T07:52:58.804Z,61.59
2023-06-17T07:56:01.346Z,61.48
2023-06-17T07:59:03.626Z,59.22
2023-06-17T08:02:08.795Z,58.99
2023-06-17T08:05:12.200Z,57.47
2023-06-17T08:08:14.446Z,55.47
2023-06-17T08:11:16.838Z,55.47
2023-06-17T08:14:19.634Z,58.25
2023-06-17T08:17:22.344Z,55.30
2023-06-17T08:20:24.724Z,54.11
2023-06-17T08:23:27.215Z,57.05
2023-06-17T08:26:29.620Z,53.95
2023-06-17T08:29:32.512Z,56.14
2023-06-17T08:32:34.900Z,57.74
2023-06-17T08:35:37.242Z,60.16
2023-06-17T08:38:39.349Z,57.70
2023-06-17T08:41:43.889Z,56.38
2023-06-17T08:44:48.004Z,54.02
2023-06-17T08:47:50.343Z,55.98
2023-06-17T08:50:54.757Z,53.52
2023-06-17T08:53:58.229Z,55.75
2023-06-17T08:57:01.799Z,53.54
2023-06-17T09:00:05.623Z,54.85
2023-06-17T09:03:10.356Z,54.73
2023-06-17T09:06:27.575Z,54.00
2023-06-17T09:09:30.118Z,52.63
2023-06-17T09:12:39.378Z,53.80
2023-06-17T09:15:41.974Z,52.48
2023-06-17T09:18:44.258Z,54.43
2023-06-17T09:21:49.768Z,55.76
2023-06-17T09:24:59.397Z,54.94
2023-06-17T09:31:08.024Z,55.31
2023-06-17T09:34:11.944Z,53.25
2023-06-17T09:37:14.312Z,54.28
2023-06-17T09:40:17.110Z,55.00
2023-06-17T09:46:36.708Z,56.48
2023-06-17T09:49:39.869Z,54.87
2023-06-17T09:52:42.652Z,54.75
2023-06-17T09:55:45.109Z,56.13
2023-06-17T09:58:48.860Z,54.00
2023-06-17T10:01:51.794Z,60.03
2023-06-17T10:04:54.956Z,51.19
2023-06-17T10:07:59.042Z,52.82
2023-06-17T10:11:01.925Z,53.96
2023-06-17T10:14:09.260Z,51.50
2023-06-17T10:17:12.759Z,55.06
2023-06-17T10:20:17.431Z,55.31
2023-06-17T10:23:22.223Z,55.22
2023-06-17T10:26:25.254Z,56.78
2023-06-17T10:29:27.514Z,58.02
2023-06-17T10:32:29.973Z,60.13
2023-06-17T10:35:41.844Z,57.75
2023-06-17T10:38:58.357Z,54.99
2023-06-17T10:42:01.405Z,53.73
2023-06-17T10:45:13.823Z,54.38
2023-06-17T10:48:20.844Z,50.56
2023-06-17T10:51:36.097Z,53.99
2023-06-17T10:54:53.845Z,57.56
2023-06-17T10:57:59.155Z,60.46
2023-06-17T11:01:03.517Z,61.31
2023-06-17T11:04:09.218Z,64.16
2023-06-17T11:07:15.427Z,66.47
2023-06-17T11:10:18.699Z,54.73
2023-06-17T11:13:25.182Z,55.55
2023-06-17T11:16:27.844Z,51.25
2023-06-17T11:19:30.099Z,47.69
2023-06-17T11:22:32.358Z,48.19
2023-06-17T11:25:44.238Z,46.23
2023-06-17T11:28:51.249Z,45.43
2023-06-17T11:31:55.105Z,44.50
2023-06-17T11:34:57.925Z,45.98
2023-06-17T11:38:01.318Z,46.22
2023-06-17T11:41:03.515Z,45.93
2023-06-17T11:44:06.903Z,46.35
2023-06-17T11:47:10.926Z,44.26
2023-06-17T11:50:13.382Z,43.56
2023-06-17T11:53:15.456Z,45.41
2023-06-17T11:56:23.536Z,46.39
2023-06-17T11:59:26.084Z,48.71
2023-06-17T12:02:31.873Z,49.89
2023-06-17T12:05:34.834Z,44.18
2023-06-17T12:08:38.747Z,40.47
2023-06-17T12:11:41.510Z,40.36
2023-06-17T12:14:43.777Z,40.74
2023-06-17T12:17:50.061Z,44.88
2023-06-17T12:20:52.426Z,48.19
2023-06-17T12:23:57.613Z,50.82
2023-06-17T12:27:00.621Z,53.60
2023-06-17T12:30:05.258Z,45.81
2023-06-17T12:33:07.556Z,47.75
2023-06-17T12:36:09.761Z,51.45
2023-06-17T12:39:12.126Z,52.16
2023-06-17T12:42:14.273Z,51.64
2023-06-17T12:45:16.614Z,46.26
2023-06-17T12:48:19.042Z,45.78
2023-06-17T12:51:21.361Z,47.74
2023-06-17T12:54:24.473Z,47.32
2023-06-17T12:57:28.506Z,47.77
2023-06-17T13:00:30.687Z,47.35
2023-06-17T13:03:34.461Z,44.74
2023-06-17T13:06:39.683Z,44.46
2023-06-17T13:09:42.597Z,43.57
2023-06-17T13:12:46.673Z,45.55
2023-06-17T13:15:50.574Z,42.93
2023-06-17T13:18:56.755Z,42.79
2023-06-17T13:21:59.563Z,44.23
2023-06-17T13:25:02.030Z,43.56
2023-06-17T13:28:04.210Z,45.02
2023-06-17T13:31:06.691Z,45.81
2023-06-17T13:34:09.879Z,46.87
2023-06-17T13:37:12.299Z,42.74
2023-06-17T13:40:14.553Z,43.31
2023-06-17T13:43:17.473Z,40.88
2023-06-17T13:46:20.003Z,37.60
2023-06-17T13:49:22.841Z,42.03
2023-06-17T13:52:25.199Z,40.21
2023-06-17T13:55:27.495Z,39.38
2023-06-17T13:58:29.583Z,40.74
2023-06-17T14:01:31.758Z,40.46
2023-06-17T14:04:34.001Z,40.42
2023-06-17T14:07:36.360Z,41.56
2023-06-17T14:10:38.570Z,40.27
2023-06-17T14:13:41.691Z,38.46
2023-06-17T14:16:45.395Z,38.37
2023-06-17T14:19:47.546Z,39.04
2023-06-17T14:22:50.597Z,35.85
2023-06-17T14:25:52.788Z,38.02
2023-06-17T14:28:54.850Z,37.73
2023-06-17T14:31:57.155Z,37.53
2023-06-17T14:35:00.327Z,41.28
2023-06-17T14:38:02.629Z,41.82
2023-06-17T14:41:04.790Z,40.48
2023-06-17T14:44:06.995Z,40.70
2023-06-17T14:47:10.407Z,41.20
2023-06-17T14:50:13.398Z,42.34
2023-06-17T14:53:34.282Z,42.47
2023-06-17T14:56:37.035Z,43.31
2023-06-17T14:59:39.212Z,43.87
2023-06-17T15:02:52.972Z,45.42
2023-06-17T15:05:55.222Z,45.67
2023-06-17T15:09:37.735Z,46.12
2023-06-17T15:12:43.537Z,46.70
2023-06-17T15:15:46.088Z,43.63
2023-06-17T15:18:48.218Z,43.44
2023-06-17T15:21:50.557Z,44.42
2023-06-17T15:24:54.112Z,45.76
2023-06-17T15:27:56.290Z,43.13
2023-06-17T15:30:58.432Z,44.00
2023-06-17T15:34:00.934Z,46.27
2023-06-17T15:37:03.470Z,45.40
2023-06-17T15:40:09.280Z,43.85
2023-06-17T15:43:11.462Z,45.43
2023-06-17T15:46:13.620Z,45.38
2023-06-17T15:49:15.917Z,46.29
2023-06-17T15:52:18.090Z,47.02
2023-06-17T15:55:20.228Z,48.88
2023-06-17T15:58:22.791Z,51.50
2023-06-17T16:01:25.016Z,49.71
2023-06-17T16:04:35.918Z,50.36
2023-06-17T16:07:38.104Z,52.00
2023-06-17T16:10:41.643Z,53.54
2023-06-17T16:13:44.096Z,51.45
2023-06-17T16:16:46.468Z,50.60
2023-06-17T16:19:48.785Z,50.82
2023-06-17T16:22:50.937Z,49.18
2023-06-17T16:25:55.980Z,50.96
2023-06-17T16:28:58.515Z,49.16
2023-06-17T16:32:00.629Z,50.77
2023-06-17T16:35:02.840Z,50.02
2023-06-17T16:38:05.103Z,51.02
2023-06-17T16:41:07.264Z,52.68
2023-06-17T16:44:09.654Z,53.45
2023-06-17T16:47:12.451Z,54.69
2023-06-17T16:50:15.063Z,55.34
2023-06-17T16:53:19.549Z,56.74
2023-06-17T16:56:21.761Z,57.18
2023-06-17T16:59:24.297Z,59.92
2023-06-17T17:02:26.475Z,59.50
2023-06-17T17:05:28.952Z,55.94
2023-06-17T17:08:33.000Z,56.97
2023-06-17T17:11:35.631Z,57.14
2023-06-17T17:14:50.494Z,57.89
2023-06-17T17:18:06.230Z,57.67
2023-06-17T17:21:28.822Z,57.16
2023-06-17T17:24:59.981Z,54.95
2023-06-17T17:28:03.433Z,57.36
2023-06-17T17:31:05.843Z,58.63
2023-06-17T17:34:07.991Z,58.96
2023-06-17T17:37:10.454Z,57.93
2023-06-17T17:40:12.990Z,58.30
2023-06-17T17:43:15.335Z,58.64
2023-06-17T17:46:17.574Z,59.33
2023-06-17T17:49:19.734Z,59.41
2023-06-17T17:52:22.157Z,60.51
2023-06-17T17:55:24.354Z,61.02
2023-06-17T17:58:26.642Z,61.29
2023-06-17T18:01:29.374Z,61.50
2023-06-17T18:04:31.533Z,62.50
2023-06-17T18:07:33.727Z,62.81
2023-06-17T18:10:35.961Z,63.79
2023-06-17T18:13:38.292Z,64.68
2023-06-17T18:16:41.172Z,64.53
2023-06-17T18:19:44.679Z,64.98
2023-06-17T18:22:46.954Z,65.56
2023-06-17T18:25:49.146Z,66.27
2023-06-17T18:28:51.915Z,68.04
2023-06-17T18:31:54.696Z,66.80
2023-06-17T18:34:56.930Z,65.65
2023-06-17T18:38:00.990Z,65.63
2023-06-17T18:41:03.619Z,66.56
2023-06-17T18:44:05.719Z,66.75
2023-06-17T18:47:08.214Z,66.45
2023-06-17T18:50:11.180Z,66.49
2023-06-17T18:53:13.239Z,66.37
2023-06-17T18:56:15.372Z,67.00
2023-06-17T18:59:17.758Z,67.15
2023-06-17T19:02:21.570Z,67.52
2023-06-17T19:05:23.789Z,67.74
2023-06-17T19:08:26.011Z,68.15
2023-06-17T19:11:28.101Z,68.26
2023-06-17T19:14:30.251Z,68.56
2023-06-17T19:17:33.145Z,69.09
2023-06-17T19:20:35.585Z,69.45
2023-06-17T19:23:37.800Z,69.92
2023-06-17T19:26:40.021Z,70.17
2023-06-17T19:29:46.069Z,70.65
2023-06-17T19:32:49.576Z,71.07
2023-06-17T19:35:51.854Z,71.45
2023-06-17T19:38:54.215Z,71.43
2023-06-17T19:41:56.597Z,72.46
2023-06-17T19:44:58.738Z,72.71
2023-06-17T19:48:08.386Z,72.77
2023-06-17T19:51:10.936Z,74.65
2023-06-17T19:54:14.007Z,74.92
2023-06-17T19:57:16.384Z,75.28
2023-06-17T20:00:19.128Z,76.11
2023-06-17T20:03:21.807Z,76.54
2023-06-17T20:06:26.488Z,76.82
2023-06-17T20:09:29.005Z,77.64
2023-06-17T20:12:31.429Z,77.66
2023-06-17T20:15:34.466Z,78.09
2023-06-17T20:18:36.862Z,78.03
2023-06-17T20:21:39.148Z,78.09
2023-06-17T20:24:41.375Z,78.42
2023-06-17T20:27:45.581Z,78.85
2023-06-17T20:30:47.936Z,78.69
2023-06-17T20:33:50.250Z,79.15
2023-06-17T20:36:52.346Z,79.86
2023-06-17T20:39:54.694Z,79.46
2023-06-17T20:42:56.917Z,80.14
2023-06-17T20:45:59.174Z,80.03
2023-06-17T20:49:01.474Z,80.66
2023-06-17T20:52:03.815Z,80.47
2023-06-17T20:55:06.648Z,80.80
2023-06-17T20:58:08.915Z,80.96
2023-06-17T21:01:12.212Z,80.88
2023-06-17T21:04:14.459Z,81.23
2023-06-17T21:07:16.859Z,81.34
2023-06-17T21:10:19.844Z,81.10
2023-06-17T21:13:22.160Z,81.74
2023-06-17T21:16:24.448Z,82.20
2023-06-17T21:19:26.577Z,82.01
2023-06-17T21:22:28.737Z,82.46
2023-06-17T21:25:31.166Z,82.25
2023-06-17T21:28:33.685Z,82.83
2023-06-17T21:31:36.012Z,83.04
2023-06-17T21:34:38.753Z,82.53
2023-06-17T21:37:40.911Z,82.66
2023-06-17T21:40:43.078Z,82.85
2023-06-17T21:43:45.333Z,83.17
2023-06-17T21:46:49.040Z,83.32
2023-06-17T21:49:52.131Z,83.33
2023-06-17T21:52:56.196Z,83.12
2023-06-17T21:55:58.350Z,83.64
2023-06-17T21:59:00.666Z,83.62
2023-06-17T22:02:03.070Z,84.37
2023-06-17T22:05:05.701Z,84.64
2023-06-17T22:08:07.991Z,84.45
2023-06-17T22:11:10.673Z,84.83
2023-06-17T22:14:12.892Z,84.47
2023-06-17T22:17:15.032Z,84.56
2023-06-17T22:20:17.295Z,84.35
2023-06-17T22:23:19.755Z,84.30
2023-06-17T22:26:21.886Z,84.48
2023-06-17T22:29:24.094Z,84.39
2023-06-17T22:32:26.286Z,84.21
2023-06-17T22:35:28.811Z,85.09
2023-06-17T22:38:30.993Z,85.31
2023-06-17T22:41:33.122Z,85.28
2023-06-17T22:44:35.283Z,85.42
2023-06-17T22:47:37.768Z,85.31
2023-06-17T22:50:40.021Z,85.44
2023-06-17T22:53:42.117Z,85.40
2023-06-17T22:56:44.316Z,85.73
2023-06-17T22:59:47.082Z,85.73
2023-06-17T23:02:49.467Z,85.97
2023-06-17T23:05:51.763Z,87.20
2023-06-17T23:08:53.922Z,87.37
2023-06-17T23:11:56.318Z,88.45
2023-06-17T23:14:58.515Z,88.61
2023-06-17T23:18:00.726Z,88.10
2023-06-17T23:21:03.058Z,88.31
2023-06-17T23:24:05.614Z,87.86
2023-06-17T23:27:07.904Z,88.44
2023-06-17T23:30:10.992Z,88.22
2023-06-17T23:33:15.106Z,87.95
2023-06-17T23:36:17.250Z,88.40
2023-06-17T23:39:19.430Z,88.41
2023-06-17T23:42:21.548Z,88.20
2023-06-17T23:45:27.776Z,88.36
2023-06-17T23:48:31.089Z,88.61
2023-06-17T23:51:33.323Z,88.15
2023-06-17T23:54:35.932Z,87.95
2023-06-17T23:57:38.122Z,87.75
